createdAt,value
2023-01-21T00:00:39.323Z,97349.53
2023-01-21T00:03:05.733Z,97354.69
2023-01-21T00:05:32.255Z,97351.22
2023-01-21T00:08:09.470Z,97351.09
2023-01-21T00:10:35.876Z,97352.75
2023-01-21T00:15:42.654Z,97348.88
2023-01-21T00:18:09.035Z,97343.44
2023-01-21T00:20:35.470Z,97346.09
2023-01-21T00:23:01.828Z,97337.44
2023-01-21T00:25:30.614Z,97343.59
2023-01-21T00:27:56.959Z,97338.16
2023-01-21T00:30:23.312Z,97340.13
2023-01-21T00:32:49.642Z,97343.44
2023-01-21T00:35:15.975Z,97343.44
2023-01-21T00:37:42.491Z,97345.13
2023-01-21T00:40:08.811Z,97336.34
2023-01-21T00:42:35.388Z,97345.94
2023-01-21T00:45:01.728Z,97343.59
2023-01-21T00:47:28.271Z,97344.56
2023-01-21T00:49:54.722Z,97344.56
2023-01-21T00:52:23.854Z,97343.88
2023-01-21T00:54:50.207Z,97344.84
2023-01-21T00:57:16.543Z,97337.88
2023-01-21T00:59:43.023Z,97343.16
2023-01-21T01:02:09.376Z,97347.63
2023-01-21T01:07:17.097Z,97341.38
2023-01-21T01:09:46.312Z,97340.41
2023-01-21T01:12:12.856Z,97348.34
2023-01-21T01:14:39.285Z,97328.44
2023-01-21T01:17:05.711Z,97338.72
2023-01-21T01:19:32.125Z,97341.38
2023-01-21T01:21:58.495Z,97338.28
2023-01-21T01:24:24.914Z,97340.53
2023-01-21T01:26:51.349Z,97343.19
2023-01-21T01:29:17.815Z,97339.69
2023-01-21T01:31:44.460Z,97333.84
2023-01-21T01:34:11.025Z,97332.19
2023-01-21T01:36:37.421Z,97346.09
2023-01-21T01:39:03.920Z,97338.56
2023-01-21T01:41:32.785Z,97336.78
2023-01-21T01:44:19.267Z,97339.28
2023-01-21T01:46:45.841Z,97333.41
2023-01-21T01:49:12.294Z,97334.28
2023-01-21T01:51:38.762Z,97337.72
2023-01-21T01:54:05.256Z,97338.69
2023-01-21T01:56:31.659Z,97329.94
2023-01-21T01:58:58.070Z,97332.72
2023-01-21T02:01:24.493Z,97332.72
2023-01-21T02:03:50.983Z,97332.03
2023-01-21T02:06:17.352Z,97333.97
2023-01-21T02:08:43.784Z,97334.66
2023-01-21T02:11:10.556Z,97326.03
2023-01-21T02:13:38.287Z,97328.53
2023-01-21T02:16:04.758Z,97326.16
2023-01-21T02:18:31.128Z,97330.75
2023-01-21T02:20:57.535Z,97317.56
2023-01-21T02:23:23.979Z,97318.66
2023-01-21T02:25:50.384Z,97317.84
2023-01-21T02:28:16.876Z,97317.69
2023-01-21T02:30:45.004Z,97318.50
2023-01-21T02:35:54.235Z,97315.56
2023-01-21T02:38:25.133Z,97316.72
2023-01-21T02:40:51.559Z,97321.00
2023-01-21T02:43:18.042Z,97319.34
2023-01-21T02:45:46.121Z,97314.06
2023-01-21T02:48:12.588Z,97319.34
2023-01-21T02:50:39.062Z,97318.50
2023-01-21T02:53:06.498Z,97315.44
2023-01-21T02:55:32.932Z,97309.31
2023-01-21T02:58:02.420Z,97310.72
2023-01-21T03:00:31.062Z,97309.31
2023-01-21T03:03:00.105Z,97308.22
2023-01-21T03:05:26.490Z,97311.13
2023-01-21T03:07:52.903Z,97312.81
2023-01-21T03:10:19.332Z,97300.84
2023-01-21T03:12:45.789Z,97308.78
2023-01-21T03:15:12.283Z,97304.53
2023-01-21T03:17:38.789Z,97303.13
2023-01-21T03:20:05.201Z,97303.16
2023-01-21T03:22:31.661Z,97302.59
2023-01-21T03:24:58.129Z,97307.34
2023-01-21T03:27:24.652Z,97307.59
2023-01-21T03:29:52.180Z,97297.34
2023-01-21T03:32:18.630Z,97296.22
2023-01-21T03:34:45.069Z,97299.72
2023-01-21T03:37:13.735Z,97304.00
2023-01-21T03:39:43.245Z,97305.00
2023-01-21T03:42:09.781Z,97299.59
2023-01-21T03:44:36.233Z,97300.41
2023-01-21T03:47:02.690Z,97295.94
2023-01-21T03:49:29.179Z,97290.94
2023-01-21T03:51:55.665Z,97288.31
2023-01-21T03:54:22.161Z,97287.75
2023-01-21T03:56:48.671Z,97289.81
2023-01-21T03:59:16.929Z,97291.78
2023-01-21T04:01:44.435Z,97297.19
2023-01-21T04:04:10.883Z,97283.13
2023-01-21T04:06:37.328Z,97285.63
2023-01-21T04:09:03.956Z,97282.19
2023-01-21T04:11:30.502Z,97279.13
2023-01-21T04:13:56.984Z,97280.22
2023-01-21T04:16:26.701Z,97283.00
2023-01-21T04:18:53.089Z,97281.44
2023-01-21T04:21:19.538Z,97280.47
2023-01-21T04:23:48.647Z,97284.75
2023-01-21T04:26:15.127Z,97280.34
2023-01-21T04:28:41.855Z,97281.28
2023-01-21T04:33:51.392Z,97286.84
2023-01-21T04:36:17.965Z,97276.44
2023-01-21T04:38:45.615Z,97274.75
2023-01-21T04:41:16.239Z,97273.06
2023-01-21T04:43:42.637Z,97269.75
2023-01-21T04:46:14.068Z,97268.06
2023-01-21T04:51:28.733Z,97266.53
2023-01-21T04:53:55.248Z,97262.25
2023-01-21T04:56:22.013Z,97262.25
2023-01-21T04:58:55.848Z,97257.22
2023-01-21T05:01:24.073Z,97266.94
2023-01-21T05:09:24.928Z,97265.38
2023-01-21T05:11:51.471Z,97265.25
2023-01-21T05:14:25.483Z,97268.88
2023-01-21T05:16:52.128Z,97267.34
2023-01-21T05:19:18.604Z,97270.13
2023-01-21T05:21:45.089Z,97268.44
2023-01-21T05:24:11.616Z,97258.84
2023-01-21T05:26:38.124Z,97261.75
2023-01-21T05:29:04.595Z,97262.59
2023-01-21T05:31:31.136Z,97265.94
2023-01-21T05:33:57.674Z,97256.47
2023-01-21T05:36:24.165Z,97264.53
2023-01-21T05:38:50.689Z,97266.22
2023-01-21T05:41:17.167Z,97257.72
2023-01-21T05:43:43.652Z,97257.72
2023-01-21T05:46:10.199Z,97259.53
2023-01-21T05:48:36.656Z,97256.19
2023-01-21T05:51:03.192Z,97257.03
2023-01-21T05:53:30.621Z,97261.56
2023-01-21T05:55:57.115Z,97263.06
2023-01-21T05:58:23.637Z,97256.97
2023-01-21T06:00:50.177Z,97264.75
2023-01-21T06:03:26.216Z,97259.34
2023-01-21T06:08:45.603Z,97271.00
2023-01-21T06:11:11.978Z,97266.44
2023-01-21T06:13:38.329Z,97267.38
2023-01-21T06:16:04.695Z,97268.25
2023-01-21T06:18:31.125Z,97269.34
2023-01-21T06:20:57.491Z,97256.97
2023-01-21T06:23:23.984Z,97269.34
2023-01-21T06:25:53.508Z,97262.66
2023-01-21T06:28:21.068Z,97260.84
2023-01-21T06:30:47.675Z,97267.94
2023-01-21T06:33:18.943Z,97260.16
2023-01-21T06:35:45.331Z,97264.34
2023-01-21T06:38:11.796Z,97268.75
2023-01-21T06:40:38.286Z,97266.97
2023-01-21T06:43:04.791Z,97265.28
2023-01-21T06:45:31.219Z,97266.84
2023-01-21T06:47:58.202Z,97268.47
2023-01-21T06:50:25.239Z,97269.34
2023-01-21T06:53:04.716Z,97270.03
2023-01-21T06:55:32.301Z,97265.03
2023-01-21T06:57:58.781Z,97272.13
2023-01-21T07:00:25.268Z,97274.03
2023-01-21T07:02:51.768Z,97270.97
2023-01-21T07:05:18.475Z,97281.06
2023-01-21T07:07:45.056Z,97278.56
2023-01-21T07:10:11.526Z,97284.78
2023-01-21T07:12:37.961Z,97285.06
2023-01-21T07:15:04.585Z,97289.63
2023-01-21T07:17:30.959Z,97287.09
2023-01-21T07:19:57.406Z,97286.28
2023-01-21T07:23:47.198Z,97285.72
2023-01-21T07:26:13.695Z,97294.53
2023-01-21T07:28:40.073Z,97283.72
2023-01-21T07:31:06.553Z,97284.44
2023-01-21T07:33:32.982Z,97288.72
2023-01-21T07:35:59.340Z,97292.34
2023-01-21T07:38:25.785Z,97288.72
2023-01-21T07:40:52.368Z,97288.50
2023-01-21T07:43:18.773Z,97289.19
2023-01-21T07:48:30.335Z,97290.72
2023-01-21T07:50:56.763Z,97291.56
2023-01-21T07:53:23.144Z,97284.22
2023-01-21T07:55:49.621Z,97287.69
2023-01-21T07:58:16.165Z,97289.50
2023-01-21T08:00:51.318Z,97283.78
2023-01-21T08:03:38.616Z,97290.47
2023-01-21T08:06:06.348Z,97300.88
2023-01-21T08:08:33.080Z,97281.81
2023-01-21T08:10:59.596Z,97289.19
2023-01-21T08:13:26.070Z,97290.59
2023-01-21T08:15:52.560Z,97289.63
2023-01-21T08:18:19.696Z,97287.69
2023-01-21T08:20:55.439Z,97286.72
2023-01-21T08:23:21.957Z,97285.75
2023-01-21T08:25:49.305Z,97284.53
2023-01-21T08:28:15.703Z,97276.75
2023-01-21T08:30:42.178Z,97281.97
2023-01-21T08:33:12.421Z,97287.56
2023-01-21T08:35:38.843Z,97276.88
2023-01-21T08:38:05.642Z,97286.78
2023-01-21T08:40:32.066Z,97285.81
2023-01-21T08:42:59.683Z,97282.06
2023-01-21T08:45:26.150Z,97289.16
2023-01-21T08:47:52.545Z,97287.34
2023-01-21T08:50:19.071Z,97292.06
2023-01-21T08:52:45.527Z,97296.06
2023-01-21T08:55:11.947Z,97297.44
2023-01-21T08:57:38.394Z,97295.97
2023-01-21T09:00:04.818Z,97297.63
2023-01-21T09:02:32.635Z,97294.16
2023-01-21T09:05:04.976Z,97287.81
2023-01-21T09:07:35.262Z,97294.72
2023-01-21T09:10:07.219Z,97291.25
2023-01-21T09:12:33.710Z,97291.66
2023-01-21T09:15:04.708Z,97283.47
2023-01-21T09:17:31.161Z,97285.97
2023-01-21T09:19:57.610Z,97286.25
2023-01-21T09:22:24.082Z,97291.13
2023-01-21T09:24:50.601Z,97286.31
2023-01-21T09:27:17.044Z,97290.34
2023-01-21T09:29:43.571Z,97288.25
2023-01-21T09:32:10.009Z,97281.63
2023-01-21T09:34:36.451Z,97279.72
2023-01-21T09:37:02.922Z,97283.03
2023-01-21T09:39:29.353Z,97290.53
2023-01-21T09:41:55.890Z,97290.81
2023-01-21T09:44:22.426Z,97298.47
2023-01-21T09:46:49.837Z,97303.72
2023-01-21T09:49:18.219Z,97296.66
2023-01-21T09:51:44.757Z,97296.81
2023-01-21T09:54:12.142Z,97300.28
2023-01-21T09:56:39.563Z,97281.41
2023-01-21T09:59:06.257Z,97284.75
2023-01-21T10:01:32.777Z,97280.28
2023-01-21T10:03:59.227Z,97272.09
2023-01-21T10:06:25.849Z,97283.94
2023-01-21T10:09:07.059Z,97266.88
2023-01-21T10:11:33.692Z,97269.09
2023-01-21T10:14:03.178Z,97264.66
2023-01-21T10:16:29.722Z,97267.41
2023-01-21T10:18:56.334Z,97258.66
2023-01-21T10:21:22.749Z,97254.75
2023-01-21T10:23:49.232Z,97258.22
2023-01-21T10:26:15.687Z,97262.03
2023-01-21T10:28:42.534Z,97257.28
2023-01-21T10:31:09.156Z,97257.03
2023-01-21T10:33:35.701Z,97249.25
2023-01-21T10:36:02.274Z,97251.56
2023-01-21T10:38:28.800Z,97257.44
2023-01-21T10:40:55.373Z,97254.25
2023-01-21T10:48:59.406Z,97243.41
2023-01-21T10:54:06.285Z,97251.06
2023-01-21T10:56:32.817Z,97237.31
2023-01-21T10:58:59.349Z,97236.34
2023-01-21T11:01:26.891Z,97241.50
2023-01-21T11:03:53.356Z,97245.09
2023-01-21T11:06:19.840Z,97243.28
2023-01-21T11:08:46.398Z,97232.59
2023-01-21T11:11:12.872Z,97240.94
2023-01-21T11:13:39.451Z,97235.38
2023-01-21T11:16:05.915Z,97228.19
2023-01-21T11:18:32.524Z,97235.09
2023-01-21T11:20:59.022Z,97235.81
2023-01-21T11:23:25.565Z,97224.53
2023-01-21T11:25:53.520Z,97218.28
2023-01-21T11:28:21.309Z,97210.50
2023-01-21T11:30:55.944Z,97207.72
2023-01-21T11:33:22.759Z,97203.94
2023-01-21T11:35:49.340Z,97196.00
2023-01-21T11:38:15.777Z,97195.31
2023-01-21T11:40:42.364Z,97205.47
2023-01-21T11:43:16.614Z,97200.03
2023-01-21T11:45:43.120Z,97184.16
2023-01-21T11:48:11.438Z,97189.72
2023-01-21T11:50:45.805Z,97188.72
2023-01-21T11:53:21.301Z,97179.81
2023-01-21T11:58:30.630Z,97172.66
2023-01-21T12:00:57.180Z,97165.47
2023-01-21T12:03:23.652Z,97165.03
2023-01-21T12:08:30.414Z,97164.75
2023-01-21T12:10:59.175Z,97168.91
2023-01-21T12:13:25.646Z,97161.75
2023-01-21T12:15:52.176Z,97152.94
2023-01-21T12:18:18.763Z,97148.97
2023-01-21T12:20:45.252Z,97148.97
2023-01-21T12:23:11.709Z,97147.41
2023-01-21T12:25:38.216Z,97137.63
2023-01-21T12:28:04.756Z,97138.38
2023-01-21T12:30:31.356Z,97139.63
2023-01-21T12:32:58.065Z,97144.19
2023-01-21T12:35:24.618Z,97138.88
2023-01-21T12:37:51.934Z,97130.75
2023-01-21T12:40:18.867Z,97127.53
2023-01-21T12:42:45.422Z,97132.38
2023-01-21T12:45:11.808Z,97131.53
2023-01-21T12:47:42.769Z,97130.09
2023-01-21T12:50:12.202Z,97128.25
2023-01-21T12:52:38.685Z,97132.28
2023-01-21T12:55:05.141Z,97129.03
2023-01-21T12:57:32.673Z,97123.13
2023-01-21T12:59:59.168Z,97138.53
2023-01-21T13:02:25.636Z,97131.97
2023-01-21T13:04:52.141Z,97121.53
2023-01-21T13:07:18.653Z,97126.47
2023-01-21T13:09:45.169Z,97127.44
2023-01-21T13:12:11.708Z,97126.53
2023-01-21T13:14:38.257Z,97125.31
2023-01-21T13:17:04.785Z,97120.41
2023-01-21T13:19:31.340Z,97129.19
2023-01-21T13:21:57.859Z,97121.72
2023-01-21T13:24:24.461Z,97115.28
2023-01-21T13:26:50.919Z,97115.72
2023-01-21T13:29:17.436Z,97120.69
2023-01-21T13:31:45.097Z,97127.38
2023-01-21T13:34:11.797Z,97126.16
2023-01-21T13:36:38.268Z,97125.53
2023-01-21T13:39:04.840Z,97125.47
2023-01-21T13:41:31.480Z,97122.06
2023-01-21T13:44:14.266Z,97119.09
2023-01-21T13:46:40.754Z,97123.38
2023-01-21T13:49:08.079Z,97122.81
2023-01-21T13:51:36.679Z,97126.66
2023-01-21T13:54:05.252Z,97119.59
2023-01-21T13:56:32.566Z,97122.38
2023-01-21T13:58:59.064Z,97121.09
2023-01-21T14:01:25.517Z,97131.16
2023-01-21T14:03:55.051Z,97127.59
2023-01-21T14:06:21.534Z,97131.47
2023-01-21T14:08:48.023Z,97131.00
2023-01-21T14:11:14.506Z,97134.34
2023-01-21T14:13:40.918Z,97132.50
2023-01-21T14:16:12.320Z,97130.59
2023-01-21T14:18:39.816Z,97133.09
2023-01-21T14:21:06.328Z,97138.44
2023-01-21T14:23:35.254Z,97133.50
2023-01-21T14:26:01.689Z,97139.16
2023-01-21T14:28:29.324Z,97141.81
2023-01-21T14:30:55.747Z,97143.13
2023-01-21T14:33:24.924Z,97141.56
2023-01-21T14:35:51.368Z,97144.88
2023-01-21T14:38:17.783Z,97153.38
2023-01-21T14:40:46.485Z,97151.22
2023-01-21T14:43:12.969Z,97150.41
2023-01-21T14:45:42.396Z,97151.94
2023-01-21T14:48:09.210Z,97153.59
2023-01-21T14:50:35.643Z,97151.44
2023-01-21T14:53:04.205Z,97151.28
2023-01-21T14:55:30.983Z,97149.31
2023-01-21T14:57:58.550Z,97154.47
2023-01-21T15:00:28.048Z,97154.75
2023-01-21T15:03:14.412Z,97150.78
2023-01-21T15:05:41.223Z,97153.72
2023-01-21T15:08:07.674Z,97158.06
2023-01-21T15:10:34.059Z,97160.03
2023-01-21T15:13:00.462Z,97164.22
2023-01-21T15:15:26.903Z,97162.84
2023-01-21T15:17:53.390Z,97167.91
2023-01-21T15:20:22.096Z,97170.00
2023-01-21T15:22:48.575Z,97168.03
2023-01-21T15:25:16.610Z,97171.38
2023-01-21T15:27:43.521Z,97177.66
2023-01-21T15:30:11.020Z,97171.94
2023-01-21T15:32:37.409Z,97170.28
2023-01-21T15:35:03.857Z,97174.59
2023-01-21T15:37:33.306Z,97179.75
2023-01-21T15:39:59.750Z,97179.19
2023-01-21T15:42:26.185Z,97184.81
2023-01-21T15:44:52.583Z,97179.31
2023-01-21T15:47:21.924Z,97184.81
2023-01-21T15:49:48.395Z,97180.72
2023-01-21T15:54:58.910Z,97183.91
2023-01-21T15:57:25.298Z,97188.91
2023-01-21T16:00:05.272Z,97185.72
2023-01-21T16:14:20.482Z,97193.66
2023-01-21T16:16:21.287Z,97190.22
2023-01-21T16:19:15.441Z,97197.09
2023-01-21T16:21:45.839Z,97195.97
2023-01-21T16:30:35.823Z,97203.63
2023-01-21T16:32:35.333Z,97203.22
2023-01-21T16:35:01.752Z,97203.78
2023-01-21T16:37:28.263Z,97205.72
2023-01-21T16:39:54.985Z,97214.69
2023-01-21T16:42:21.406Z,97205.84
2023-01-21T16:47:28.140Z,97217.78
2023-01-21T16:49:58.741Z,97216.34
2023-01-21T16:52:25.274Z,97216.66
2023-01-21T16:54:52.031Z,97212.72
2023-01-21T16:57:18.585Z,97220.31
2023-01-21T16:59:45.226Z,97222.66
2023-01-21T17:02:11.937Z,97217.19
2023-01-21T17:04:45.740Z,97219.38
2023-01-21T17:07:12.289Z,97211.66
2023-01-21T17:09:42.077Z,97216.56
2023-01-21T17:12:08.732Z,97220.56
2023-01-21T17:14:40.106Z,97214.16
2023-01-21T17:17:06.555Z,97218.47
2023-01-21T17:19:32.971Z,97214.00
2023-01-21T17:21:59.408Z,97217.66
2023-01-21T17:24:28.625Z,97226.75
2023-01-21T17:26:55.034Z,97219.09
2023-01-21T17:29:21.505Z,97221.69
2023-01-21T17:31:50.439Z,97240.41
2023-01-21T17:36:57.432Z,97215.00
2023-01-21T17:39:23.963Z,97222.34
2023-01-21T17:41:50.464Z,97230.00
2023-01-21T17:44:16.998Z,97230.47
2023-01-21T17:46:44.821Z,97233.25
2023-01-21T17:49:13.714Z,97233.56
2023-01-21T17:51:41.373Z,97238.88
2023-01-21T17:54:08.224Z,97232.22
2023-01-21T17:56:38.042Z,97222.16
2023-01-21T17:59:06.891Z,97240.84
2023-01-21T18:01:33.382Z,97240.00
2023-01-21T18:04:00.092Z,97238.19
2023-01-21T18:06:28.790Z,97235.84
2023-01-21T18:08:55.124Z,97243.44
2023-01-21T18:11:21.630Z,97242.22
2023-01-21T18:14:08.379Z,97251.69
2023-01-21T18:16:34.797Z,97251.53
2023-01-21T18:19:05.338Z,97253.50
2023-01-21T18:21:50.695Z,97249.31
2023-01-21T18:24:17.190Z,97254.47
2023-01-21T18:26:43.707Z,97248.19
2023-01-21T18:29:10.140Z,97255.84
2023-01-21T18:31:36.711Z,97255.41
2023-01-21T18:34:03.713Z,97255.25
2023-01-21T18:36:32.314Z,97252.81
2023-01-21T18:41:40.291Z,97254.09
2023-01-21T18:44:09.589Z,97261.59
2023-01-21T18:46:36.122Z,97257.44
2023-01-21T18:49:02.623Z,97262.59
2023-01-21T18:51:29.183Z,97262.19
2023-01-21T18:53:55.858Z,97262.19
2023-01-21T18:56:31.764Z,97268.25
2023-01-21T18:59:01.261Z,97269.09
2023-01-21T19:01:27.783Z,97268.41
2023-01-21T19:06:36.196Z,97262.00
2023-01-21T19:09:05.488Z,97267.19
2023-01-21T19:11:32.018Z,97268.34
2023-01-21T19:14:01.170Z,97268.56
2023-01-21T19:16:27.797Z,97271.69
2023-01-21T19:18:54.233Z,97273.78
2023-01-21T19:21:24.314Z,97278.31
2023-01-21T19:23:50.710Z,97286.97
2023-01-21T19:26:17.167Z,97286.72
2023-01-21T19:28:51.690Z,97278.19
2023-01-21T19:31:21.299Z,97279.75
2023-01-21T19:33:47.815Z,97277.66
2023-01-21T19:36:22.225Z,97280.97
2023-01-21T19:38:53.054Z,97285.16
2023-01-21T19:41:19.701Z,97287.50
2023-01-21T19:43:46.212Z,97292.78
2023-01-21T19:46:12.765Z,97292.28
2023-01-21T19:48:39.316Z,97292.72
2023-01-21T19:51:06.036Z,97300.28
2023-01-21T19:53:32.624Z,97298.09
2023-01-21T19:55:59.156Z,97303.09
2023-01-21T19:58:25.714Z,97306.13
2023-01-21T20:00:52.321Z,97311.56
2023-01-21T20:03:30.284Z,97314.09
2023-01-21T20:08:45.724Z,97308.53
2023-01-21T20:11:12.237Z,97319.13
2023-01-21T20:13:41.475Z,97327.34
2023-01-21T20:18:48.247Z,97326.34
2023-01-21T20:21:14.681Z,97341.31
2023-01-21T20:23:41.397Z,97339.22
2023-01-21T20:26:07.907Z,97341.56
2023-01-21T20:28:34.516Z,97335.41
2023-01-21T20:31:02.281Z,97337.25
2023-01-21T20:33:28.786Z,97348.00
2023-01-21T20:35:55.201Z,97347.16
2023-01-21T20:38:22.759Z,97351.41
2023-01-21T20:40:49.588Z,97351.25
2023-01-21T20:44:08.893Z,97351.91
2023-01-21T20:49:05.302Z,97364.78
2023-01-21T20:51:31.964Z,97368.47
2023-01-21T20:53:58.543Z,97370.09
2023-01-21T20:56:33.967Z,97373.41
2023-01-21T20:59:00.572Z,97376.47
2023-01-21T21:01:27.122Z,97376.91
2023-01-21T21:03:53.605Z,97374.53
2023-01-21T21:06:23.265Z,97371.19
2023-01-21T21:08:49.711Z,97371.63
2023-01-21T21:11:16.239Z,97390.47
2023-01-21T21:13:42.780Z,97387.69
2023-01-21T21:16:09.353Z,97384.75
2023-01-21T21:18:38.412Z,97389.53
2023-01-21T21:21:06.931Z,97390.81
2023-01-21T21:23:33.537Z,97387.47
2023-01-21T21:26:00.144Z,97392.34
2023-01-21T21:28:29.579Z,97396.94
2023-01-21T21:30:56.094Z,97389.53
2023-01-21T21:39:09.357Z,97402.53
2023-01-21T21:41:41.378Z,97408.69
2023-01-21T21:44:07.860Z,97402.53
2023-01-21T21:46:34.338Z,97395.69
2023-01-21T21:49:00.740Z,97396.09
2023-01-21T21:51:28.356Z,97400.44
2023-01-21T21:53:55.646Z,97401.41
2023-01-21T21:56:22.254Z,97406.56
2023-01-21T21:58:50.893Z,97403.78
2023-01-21T22:01:30.513Z,97403.91
2023-01-21T22:09:29.179Z,97405.19
2023-01-21T22:11:55.633Z,97409.66
2023-01-21T22:14:22.452Z,97407.69
2023-01-21T22:16:49.071Z,97401.19
2023-01-21T22:19:15.729Z,97401.72
2023-01-21T22:21:42.246Z,97403.97
2023-01-21T22:24:11.868Z,97396.72
2023-01-21T22:26:38.466Z,97402.16
2023-01-21T22:29:04.992Z,97399.78
2023-01-21T22:31:31.679Z,97402.72
2023-01-21T22:34:00.969Z,97405.63
2023-01-21T22:36:27.724Z,97405.38
2023-01-21T22:38:54.234Z,97402.03
2023-01-21T22:44:04.776Z,97402.03
2023-01-21T22:46:31.432Z,97407.19
2023-01-21T22:48:57.931Z,97399.94
2023-01-21T22:51:24.531Z,97406.06
2023-01-21T22:53:58.503Z,97406.78
2023-01-21T22:56:44.949Z,97403.03
2023-01-21T22:59:19.021Z,97399.22
2023-01-21T23:01:46.959Z,97409.28
2023-01-21T23:04:17.014Z,97411.78
2023-01-21T23:06:46.349Z,97410.09
2023-01-21T23:09:12.885Z,97413.75
2023-01-21T23:11:41.868Z,97398.97
2023-01-21T23:17:00.602Z,97406.34
2023-01-21T23:19:35.860Z,97411.38
2023-01-21T23:22:02.382Z,97409.84
2023-01-21T23:24:29.912Z,97411.78
2023-01-21T23:27:00.084Z,97404.13
2023-01-21T23:29:29.708Z,97414.97
2023-01-21T23:39:54.522Z,97410.38
2023-01-21T23:56:00.317Z,97398.69
2023-01-21T23:58:26.829Z,97403.69
